createdAt,value
2022-11-08T00:00:10.344Z,12.50
2022-11-08T00:04:15.835Z,9.07
2022-11-08T00:09:09.901Z,8.73
2022-11-08T01:57:10.903Z,8.52
2022-11-08T02:01:40.495Z,9.98
2022-11-08T02:06:05.735Z,10.57
2022-11-08T02:10:34.339Z,11.85
2022-11-08T02:15:33.810Z,12.82
2022-11-08T02:19:57.764Z,12.93
2022-11-08T02:24:16.993Z,21.75
2022-11-08T02:28:28.601Z,22.67
2022-11-08T02:37:23.962Z,26.50
2022-11-08T02:42:00.508Z,20.75
2022-11-08T03:11:09.309Z,24.98
2022-11-08T03:15:57.760Z,20.50
2022-11-08T03:20:11.375Z,23.83
2022-11-08T03:24:36.085Z,20.30
2022-11-08T03:28:57.809Z,22.92
2022-11-08T03:37:40.664Z,25.10
2022-11-08T03:42:01.335Z,23.30
2022-11-08T03:46:19.340Z,23.10
2022-11-08T03:50:32.699Z,23.45
2022-11-08T03:54:55.984Z,21.90
2022-11-08T03:59:08.757Z,20.75
2022-11-08T04:03:37.923Z,19.33
2022-11-08T04:07:49.353Z,23.30
2022-11-08T04:12:17.497Z,21.13
2022-11-08T04:17:04.583Z,19.25
2022-11-08T04:21:25.166Z,18.75
2022-11-08T04:25:50.946Z,18.08
2022-11-08T04:29:59.734Z,17.38
2022-11-08T04:34:17.974Z,14.07
2022-11-08T04:38:43.290Z,14.80
2022-11-08T04:47:14.961Z,10.15
2022-11-08T04:51:39.075Z,12.13
2022-11-08T04:55:49.283Z,11.40
2022-11-08T05:00:03.100Z,12.75
2022-11-08T05:04:37.539Z,18.88
2022-11-08T05:08:44.240Z,15.23
2022-11-08T05:12:52.789Z,18.25
2022-11-08T05:17:00.790Z,18.50
2022-11-08T05:21:23.288Z,19.42
2022-11-08T05:25:26.853Z,18.75
2022-11-08T05:29:41.138Z,21.63
2022-11-08T05:34:37.274Z,18.92
2022-11-08T05:39:20.413Z,24.73
2022-11-08T05:44:47.984Z,24.58
2022-11-08T05:49:16.599Z,27.52
2022-11-08T05:53:20.165Z,22.80
2022-11-08T06:04:28.755Z,37.65
2022-11-08T06:08:35.782Z,45.88
2022-11-08T06:28:48.689Z,46.33
2022-11-08T06:33:07.567Z,43.63
2022-11-08T06:37:46.102Z,45.60
2022-11-08T06:42:18.568Z,56.63
2022-11-08T06:46:42.169Z,78.55
2022-11-08T06:51:22.942Z,48.50
2022-11-08T07:00:07.091Z,61.00
2022-11-08T07:09:17.501Z,85.18
2022-11-08T07:13:33.053Z,88.13
2022-11-08T07:18:19.546Z,60.20
2022-11-08T07:22:25.845Z,65.45
2022-11-08T07:26:38.644Z,75.95
2022-11-08T07:31:04.548Z,67.07
2022-11-08T07:35:17.116Z,73.40
2022-11-08T07:39:24.815Z,93.45
2022-11-08T07:43:31.427Z,74.53
2022-11-08T07:47:47.432Z,235.20
2022-11-08T07:51:55.327Z,112.78
2022-11-08T07:56:10.997Z,101.07
2022-11-08T08:00:19.994Z,135.32
2022-11-08T08:04:25.004Z,141.48
2022-11-08T08:08:38.006Z,74.93
2022-11-08T08:13:54.997Z,80.78
2022-11-08T08:27:03.940Z,32.22
2022-11-08T08:31:24.630Z,29.55
2022-11-08T08:35:34.104Z,31.40
2022-11-08T08:39:40.206Z,26.33
2022-11-08T08:43:47.054Z,29.00
2022-11-08T08:52:09.283Z,28.88
2022-11-08T08:56:13.999Z,29.95
2022-11-08T09:04:40.722Z,38.60
2022-11-08T09:08:43.484Z,29.40
2022-11-08T09:12:46.402Z,36.20
2022-11-08T09:16:49.171Z,38.55
2022-11-08T09:20:51.987Z,52.28
2022-11-08T09:24:55.002Z,36.17
2022-11-08T09:28:57.804Z,34.90
2022-11-08T09:33:03.542Z,41.47
2022-11-08T09:37:11.285Z,31.00
2022-11-08T09:41:35.303Z,26.55
2022-11-08T09:45:50.020Z,25.80
2022-11-08T09:50:01.662Z,28.88
2022-11-08T09:54:17.108Z,29.08
2022-11-08T10:27:23.621Z,22.60
2022-11-08T10:32:49.986Z,24.23
2022-11-08T10:38:32.595Z,20.48
2022-11-08T11:00:38.149Z,39.00
2022-11-08T11:23:50.755Z,32.22
2022-11-08T11:28:14.249Z,29.60
2022-11-08T11:32:34.341Z,28.30
2022-11-08T11:36:37.483Z,35.35
2022-11-08T11:40:46.673Z,20.35
2022-11-08T11:45:03.123Z,19.77
2022-11-08T11:49:13.913Z,15.25
2022-11-08T11:53:25.092Z,13.65
2022-11-08T11:57:48.534Z,12.30
2022-11-08T12:02:29.195Z,14.55
2022-11-08T12:06:47.100Z,14.75
2022-11-08T12:11:05.151Z,15.27
2022-11-08T12:15:33.915Z,11.68
2022-11-08T12:19:46.953Z,12.20
2022-11-08T12:23:58.846Z,13.00
2022-11-08T12:28:10.675Z,10.10
2022-11-08T12:32:31.959Z,8.98
2022-11-08T12:37:05.819Z,7.35
2022-11-08T12:41:20.858Z,9.07
2022-11-08T12:45:50.512Z,9.88
2022-11-08T12:50:21.295Z,7.43
2022-11-08T12:54:40.946Z,9.77
2022-11-08T12:58:49.945Z,7.70
2022-11-08T13:03:42.853Z,7.90
2022-11-08T13:08:12.050Z,8.00
2022-11-08T13:12:43.014Z,7.65
2022-11-08T13:17:06.722Z,9.15
2022-11-08T13:21:27.966Z,7.68
2022-11-08T13:25:35.542Z,6.65
2022-11-08T13:29:38.793Z,7.38
2022-11-08T13:34:05.388Z,6.90
2022-11-08T13:38:36.065Z,8.05
2022-11-08T13:43:28.253Z,6.13
2022-11-08T13:47:34.279Z,5.07
2022-11-08T13:51:44.309Z,8.43
2022-11-08T13:55:47.388Z,6.47
2022-11-08T13:59:54.229Z,6.53
2022-11-08T14:03:58.866Z,5.72
2022-11-08T14:08:18.662Z,6.10
2022-11-08T14:12:43.573Z,7.82
2022-11-08T14:17:12.722Z,8.15
2022-11-08T14:21:18.720Z,8.82
2022-11-08T14:25:35.502Z,9.87
2022-11-08T14:29:39.938Z,6.93
2022-11-08T14:33:47.856Z,8.40
2022-11-08T14:37:58.767Z,8.27
2022-11-08T14:42:16.769Z,8.65
2022-11-08T14:46:33.433Z,7.88
2022-11-08T14:54:47.247Z,10.98
2022-11-08T14:58:55.628Z,11.93
2022-11-08T15:03:08.110Z,11.65
2022-11-08T15:07:18.633Z,9.10
2022-11-08T15:11:38.880Z,15.40
2022-11-08T15:16:02.512Z,14.88
2022-11-08T15:20:22.234Z,18.52
2022-11-08T15:24:40.455Z,18.25
2022-11-08T15:33:46.539Z,13.07
2022-11-08T15:38:12.199Z,11.85
2022-11-08T15:42:30.586Z,8.75
2022-11-08T15:46:40.449Z,8.38
2022-11-08T15:50:43.509Z,8.95
2022-11-08T15:54:50.886Z,10.10
2022-11-08T15:59:01.631Z,9.70
2022-11-08T16:03:05.818Z,12.10
2022-11-08T16:07:10.369Z,18.50
2022-11-08T16:11:32.619Z,13.98
2022-11-08T16:15:39.028Z,12.60
2022-11-08T16:19:45.267Z,12.65
2022-11-08T16:23:49.585Z,12.85
2022-11-08T16:28:04.712Z,10.93
2022-11-08T16:32:13.933Z,11.98
2022-11-08T16:36:22.146Z,11.15
2022-11-08T16:40:25.634Z,7.85
2022-11-08T16:44:32.464Z,7.05
2022-11-08T16:48:39.275Z,5.23
2022-11-08T16:52:42.531Z,8.98
2022-11-08T16:56:45.963Z,6.25
2022-11-08T17:01:09.980Z,6.93
2022-11-08T17:05:27.783Z,7.15
2022-11-08T17:09:31.503Z,5.38
2022-11-08T17:13:40.466Z,15.88
2022-11-08T17:17:50.578Z,6.47
2022-11-08T17:22:29.261Z,20.95
2022-11-08T17:26:48.632Z,33.75
2022-11-08T17:30:52.838Z,57.78
2022-11-08T17:40:38.161Z,20.45
2022-11-08T17:44:43.439Z,19.35
2022-11-08T17:48:46.372Z,8.45
2022-11-08T17:52:54.049Z,8.00
2022-11-08T17:57:00.105Z,8.45
2022-11-08T18:01:22.865Z,8.60
2022-11-08T18:15:18.425Z,10.77
2022-11-08T18:22:18.138Z,12.38
2022-11-08T18:27:12.441Z,9.75
2022-11-08T18:55:52.932Z,10.93
2022-11-08T19:07:08.545Z,15.55
2022-11-08T19:12:13.535Z,16.23
2022-11-08T19:21:45.158Z,14.00
2022-11-08T19:26:33.643Z,15.82
2022-11-08T19:31:47.487Z,14.38
2022-11-08T19:46:37.172Z,14.63
2022-11-08T20:04:37.050Z,11.75
2022-11-08T20:28:57.007Z,10.57
2022-11-08T20:33:13.984Z,11.27
2022-11-08T20:38:35.659Z,9.52
2022-11-08T20:42:47.607Z,10.55
2022-11-08T20:47:19.125Z,12.50
2022-11-08T20:56:45.511Z,18.58
2022-11-08T21:01:05.933Z,23.55
2022-11-08T21:06:09.080Z,18.67
2022-11-08T21:10:40.964Z,15.27
2022-11-08T21:14:39.576Z,16.83
